LYBE/BEG METAR and TAF weather

Enter ICAO airport designator
Station Type Date Time Source
LYBE METAR 2022/05/26 04:30 UTC NOAA

LYBE 260430Z 29010KT CAVOK 18/14 Q1021 NOSIG


Station Type Date Time Source
LYBE Decoded METAR 2022/05/26 04:30 UTC NOAA

Beograd / Surcin, Serbia and Montenegro (LYBE) 44-49N 020-17E 99M
May 26, 2022 - 12:30 AM EDT / 2022.05.26 0430 UTC
Wind: from the WNW (290 degrees) at 12 MPH (10 KT):0
Visibility: greater than 7 mile(s):0
Temperature: 64 F (18 C)
Dew Point: 57 F (14 C)
Relative Humidity: 77%
Pressure (altimeter): 30.15 in. Hg (1021 hPa)
ob: LYBE 260430Z 29010KT CAVOK 18/14 Q1021 NOSIG
cycle: 4

Station Type Date Time Source
LYBE TAF 2022/05/25 18:22 UTC NOAA

TAF LYBE 251700Z 2518/2618 31006KT CAVOK TX27/2613Z TN15/2603Z
TEMPO 2520/2602 32018G30KT 3000 TSRA SCT035CB BKN040

Example: see airport list